createdAt,value
2018-03-11T00:00:09.934Z,8.50
2018-03-11T00:02:37.540Z,8.37
2018-03-11T00:05:05.188Z,8.05
2018-03-11T00:07:32.786Z,7.15
2018-03-11T00:10:00.445Z,6.40
2018-03-11T00:12:28.102Z,7.30
2018-03-11T00:14:55.720Z,6.95
2018-03-11T00:17:23.341Z,6.80
2018-03-11T00:19:50.975Z,6.47
2018-03-11T00:22:18.609Z,6.70
2018-03-11T00:24:46.258Z,6.62
2018-03-11T00:27:13.868Z,6.70
2018-03-11T00:29:41.482Z,6.53
2018-03-11T00:32:09.877Z,6.18
2018-03-11T00:34:38.248Z,6.12
2018-03-11T00:37:06.967Z,6.18
2018-03-11T00:39:34.583Z,6.57
2018-03-11T00:42:02.811Z,6.30
2018-03-11T00:44:30.457Z,6.55
2018-03-11T00:46:58.080Z,6.22
2018-03-11T00:49:25.706Z,6.87
2018-03-11T00:51:53.352Z,6.40
2018-03-11T00:54:21.761Z,6.22
2018-03-11T00:56:49.372Z,6.40
2018-03-11T00:59:16.995Z,6.50
2018-03-11T01:01:44.606Z,6.45
2018-03-11T01:04:12.251Z,6.20
2018-03-11T01:06:39.890Z,6.35
2018-03-11T01:09:07.488Z,6.22
2018-03-11T01:11:35.135Z,6.43
2018-03-11T01:14:03.493Z,5.87
2018-03-11T01:16:31.133Z,6.72
2018-03-11T01:18:58.777Z,6.47
2018-03-11T01:21:26.369Z,6.53
2018-03-11T01:23:54.505Z,7.03
2018-03-11T01:26:22.121Z,6.45
2018-03-11T01:28:50.532Z,6.53
2018-03-11T01:31:18.171Z,6.20
2018-03-11T01:33:46.570Z,5.75
2018-03-11T01:36:14.172Z,5.55
2018-03-11T01:38:41.786Z,5.97
2018-03-11T01:41:09.470Z,6.35
2018-03-11T01:43:37.112Z,6.17
2018-03-11T01:46:04.742Z,6.00
2018-03-11T01:48:32.381Z,6.18
2018-03-11T01:51:00.004Z,6.15
2018-03-11T01:53:27.623Z,6.47
2018-03-11T01:55:55.256Z,5.53
2018-03-11T01:58:22.974Z,5.72
2018-03-11T02:00:50.630Z,7.43
2018-03-11T02:03:18.286Z,5.55
2018-03-11T02:05:45.982Z,5.70
2018-03-11T02:08:13.619Z,5.13
2018-03-11T02:10:41.281Z,5.72
2018-03-11T02:13:08.915Z,6.60
2018-03-11T02:15:37.324Z,5.82
2018-03-11T02:18:04.970Z,5.60
2018-03-11T02:20:33.372Z,7.72
2018-03-11T02:23:00.988Z,6.53
2018-03-11T02:25:28.610Z,7.00
2018-03-11T02:27:56.247Z,7.97
2018-03-11T02:30:24.659Z,7.10
2018-03-11T02:32:52.306Z,8.17
2018-03-11T02:35:20.742Z,7.72
2018-03-11T02:37:48.340Z,9.35
2018-03-11T02:40:15.989Z,7.85
2018-03-11T02:42:44.436Z,9.30
2018-03-11T02:45:12.041Z,8.63
2018-03-11T02:47:39.676Z,7.03
2018-03-11T02:50:08.053Z,7.72
2018-03-11T02:52:36.425Z,7.25
2018-03-11T02:55:04.062Z,5.82
2018-03-11T02:57:32.464Z,6.93
2018-03-11T03:00:00.883Z,6.12
2018-03-11T03:02:28.514Z,6.40
2018-03-11T03:04:56.136Z,6.45
2018-03-11T03:07:23.993Z,5.70
2018-03-11T03:09:51.590Z,6.68
2018-03-11T03:12:19.194Z,6.05
2018-03-11T03:14:46.839Z,5.93
2018-03-11T03:17:15.220Z,5.80
2018-03-11T03:19:43.630Z,5.40
2018-03-11T03:22:11.230Z,5.73
2018-03-11T03:24:39.620Z,5.37
2018-03-11T03:27:07.254Z,5.87
2018-03-11T03:29:35.162Z,5.55
2018-03-11T03:32:02.825Z,5.20
2018-03-11T03:34:30.430Z,5.20
2018-03-11T03:36:58.833Z,5.78
2018-03-11T03:39:26.471Z,5.20
2018-03-11T03:41:54.855Z,5.35
2018-03-11T03:44:23.262Z,5.32
2018-03-11T03:46:50.925Z,4.93
2018-03-11T03:49:18.544Z,5.27
2018-03-11T03:51:46.942Z,4.80
2018-03-11T03:54:14.571Z,4.93
2018-03-11T03:56:42.187Z,4.70
2018-03-11T03:59:10.595Z,5.03
2018-03-11T04:01:38.227Z,4.25
2018-03-11T04:04:05.842Z,4.95
2018-03-11T04:06:33.480Z,4.77
2018-03-11T04:09:01.831Z,4.50
2018-03-11T04:11:30.310Z,4.35
2018-03-11T04:13:57.901Z,4.67
2018-03-11T04:16:25.571Z,5.03
2018-03-11T04:18:53.210Z,5.32
2018-03-11T04:21:20.840Z,5.62
2018-03-11T04:23:48.478Z,5.15
2018-03-11T04:26:16.169Z,4.87
2018-03-11T04:28:43.835Z,5.43
2018-03-11T04:31:11.470Z,5.00
2018-03-11T04:33:39.097Z,5.00
2018-03-11T04:36:06.799Z,4.40
2018-03-11T04:38:34.369Z,4.62
2018-03-11T04:41:02.802Z,4.90
2018-03-11T04:43:30.700Z,5.45
2018-03-11T04:45:58.329Z,4.43
2018-03-11T04:48:25.927Z,4.68
2018-03-11T04:50:53.806Z,4.85
2018-03-11T04:53:21.392Z,5.20
2018-03-11T04:55:49.026Z,4.62
2018-03-11T04:58:16.635Z,4.70
2018-03-11T05:00:45.014Z,4.30
2018-03-11T05:03:13.685Z,4.93
2018-03-11T05:05:41.289Z,5.05
2018-03-11T05:08:08.920Z,4.75
2018-03-11T05:10:37.341Z,5.10
2018-03-11T05:13:04.959Z,5.18
2018-03-11T05:15:32.902Z,4.82
2018-03-11T05:18:00.509Z,5.25
2018-03-11T05:20:28.132Z,5.18
2018-03-11T05:22:55.835Z,5.30
2018-03-11T05:25:23.475Z,4.40
2018-03-11T05:27:51.124Z,4.62
2018-03-11T05:30:18.721Z,4.50
2018-03-11T05:32:46.372Z,4.62
2018-03-11T05:35:13.975Z,3.97
2018-03-11T05:37:42.357Z,4.53
2018-03-11T05:40:10.012Z,4.03
2018-03-11T05:42:37.660Z,4.05
2018-03-11T05:45:05.279Z,3.95
2018-03-11T05:47:32.936Z,3.90
2018-03-11T05:50:01.325Z,4.12
2018-03-11T05:52:28.939Z,4.10
2018-03-11T05:54:56.595Z,4.90
2018-03-11T05:57:24.224Z,4.18
2018-03-11T05:59:51.922Z,4.45
2018-03-11T06:02:19.597Z,4.25
2018-03-11T06:04:47.273Z,4.57
2018-03-11T06:07:14.934Z,4.93
2018-03-11T06:09:42.555Z,4.60
2018-03-11T06:12:10.978Z,5.57
2018-03-11T06:14:38.631Z,4.90
2018-03-11T06:17:06.283Z,4.60
2018-03-11T06:19:34.691Z,4.90
2018-03-11T06:22:02.362Z,4.60
2018-03-11T06:24:29.995Z,5.15
2018-03-11T06:26:58.394Z,4.85
2018-03-11T06:29:26.737Z,5.10
2018-03-11T06:31:54.682Z,5.45
2018-03-11T06:34:22.267Z,5.20
2018-03-11T06:36:49.858Z,5.20
2018-03-11T06:39:17.517Z,5.85
2018-03-11T06:41:45.146Z,6.32
2018-03-11T06:44:12.854Z,6.62
2018-03-11T06:46:41.243Z,5.75
2018-03-11T06:49:10.106Z,6.32
2018-03-11T06:51:37.713Z,5.82
2018-03-11T06:54:05.328Z,6.05
2018-03-11T06:56:32.988Z,5.57
2018-03-11T06:59:00.593Z,5.80
2018-03-11T07:01:29.277Z,6.10
2018-03-11T07:03:56.871Z,6.70
2018-03-11T07:06:24.549Z,6.40
2018-03-11T07:08:52.217Z,6.40
2018-03-11T07:11:19.824Z,5.97
2018-03-11T07:13:47.460Z,6.53
2018-03-11T07:16:15.143Z,7.03
2018-03-11T07:18:42.774Z,7.27
2018-03-11T07:21:10.420Z,7.87
2018-03-11T07:23:38.047Z,7.65
2018-03-11T07:26:05.738Z,6.40
2018-03-11T07:28:33.375Z,6.32
2018-03-11T07:31:01.340Z,7.00
2018-03-11T07:33:29.790Z,7.95
2018-03-11T07:35:58.171Z,7.20
2018-03-11T07:38:25.815Z,7.03
2018-03-11T07:40:53.510Z,7.68
2018-03-11T07:43:22.013Z,6.80
2018-03-11T07:45:49.708Z,8.77
2018-03-11T07:48:17.374Z,7.62
2018-03-11T07:50:45.758Z,8.57
2018-03-11T07:53:13.402Z,9.00
2018-03-11T07:55:41.061Z,8.55
2018-03-11T07:58:09.527Z,8.75
2018-03-11T08:00:37.898Z,7.05
2018-03-11T08:03:05.554Z,8.38
2018-03-11T08:05:33.179Z,8.98
2018-03-11T08:08:00.804Z,8.35
2018-03-11T08:10:29.218Z,8.52
2018-03-11T08:12:56.856Z,8.32
2018-03-11T08:15:24.510Z,8.73
2018-03-11T08:17:52.151Z,9.02
2018-03-11T08:20:19.766Z,8.60
2018-03-11T08:22:47.432Z,8.40
2018-03-11T08:25:15.088Z,7.97
2018-03-11T08:27:43.537Z,8.88
2018-03-11T08:30:11.192Z,9.27
2018-03-11T08:32:38.827Z,9.48
2018-03-11T08:35:07.235Z,9.95
2018-03-11T08:37:34.871Z,9.18
2018-03-11T08:40:03.306Z,10.30
2018-03-11T08:42:30.911Z,8.93
2018-03-11T08:44:58.567Z,8.55
2018-03-11T08:47:26.267Z,8.48
2018-03-11T08:49:53.908Z,8.75
2018-03-11T08:52:22.298Z,9.95
2018-03-11T08:54:50.726Z,8.83
2018-03-11T08:57:19.153Z,9.25
2018-03-11T08:59:46.790Z,9.45
2018-03-11T09:02:14.425Z,10.23
2018-03-11T09:04:42.049Z,10.17
2018-03-11T09:07:09.642Z,12.05
2018-03-11T09:09:37.274Z,11.00
2018-03-11T09:12:04.942Z,10.70
2018-03-11T09:14:32.601Z,11.07
2018-03-11T09:17:00.202Z,10.45
2018-03-11T09:19:28.596Z,9.63
2018-03-11T09:21:56.233Z,10.95
2018-03-11T09:24:23.826Z,10.85
2018-03-11T09:26:51.447Z,10.48
2018-03-11T09:29:19.073Z,12.57
2018-03-11T09:31:46.682Z,9.88
2018-03-11T09:34:14.289Z,11.23
2018-03-11T09:36:41.904Z,11.88
2018-03-11T09:39:09.518Z,9.07
2018-03-11T09:41:37.203Z,11.35
2018-03-11T09:44:04.814Z,9.77
2018-03-11T09:46:32.465Z,11.52
2018-03-11T09:49:00.137Z,10.30
2018-03-11T09:51:27.764Z,10.07
2018-03-11T09:53:55.407Z,9.25
2018-03-11T09:56:23.858Z,9.50
2018-03-11T09:58:51.500Z,8.73
2018-03-11T10:01:19.139Z,8.18
2018-03-11T10:03:46.870Z,8.23
2018-03-11T10:06:14.481Z,8.90
2018-03-11T10:08:42.142Z,7.25
2018-03-11T10:11:09.758Z,6.60
2018-03-11T10:13:37.433Z,6.93
2018-03-11T10:16:05.044Z,5.65
2018-03-11T10:18:32.655Z,7.22
2018-03-11T10:21:01.157Z,6.62
2018-03-11T10:23:28.798Z,5.95
2018-03-11T10:25:56.426Z,6.17
2018-03-11T10:28:24.077Z,6.28
2018-03-11T10:30:51.755Z,6.22
2018-03-11T10:33:19.425Z,5.72
2018-03-11T10:35:47.076Z,4.87
2018-03-11T10:38:14.773Z,5.18
2018-03-11T10:40:42.481Z,5.55
2018-03-11T10:43:10.144Z,5.93
2018-03-11T10:45:37.830Z,4.37
2018-03-11T10:48:06.210Z,5.15
2018-03-11T10:50:33.820Z,5.27
2018-03-11T10:53:01.506Z,5.25
2018-03-11T10:55:29.175Z,5.30
2018-03-11T10:57:56.812Z,5.00
2018-03-11T11:00:27.345Z,5.62
2018-03-11T11:03:00.526Z,5.60
2018-03-11T11:05:28.923Z,5.93
2018-03-11T11:07:56.920Z,4.65
2018-03-11T11:10:24.674Z,4.87
2018-03-11T11:12:52.925Z,4.68
2018-03-11T11:15:20.574Z,4.55
2018-03-11T11:17:48.210Z,4.43
2018-03-11T11:20:16.155Z,4.15
2018-03-11T11:22:43.804Z,4.47
2018-03-11T11:25:12.180Z,3.85
2018-03-11T11:27:40.578Z,3.47
2018-03-11T11:30:08.234Z,2.92
2018-03-11T11:32:35.873Z,3.70
2018-03-11T11:35:03.513Z,2.70
2018-03-11T11:37:31.153Z,3.05
2018-03-11T11:39:58.816Z,3.40
2018-03-11T11:42:26.434Z,2.90
2018-03-11T11:44:54.106Z,3.10
2018-03-11T11:47:21.718Z,2.92
2018-03-11T11:49:49.374Z,2.62
2018-03-11T11:52:17.751Z,3.65
2018-03-11T11:54:46.163Z,2.97
2018-03-11T11:57:13.805Z,2.43
2018-03-11T11:59:42.188Z,2.50
2018-03-11T12:02:10.563Z,2.20
2018-03-11T12:04:38.976Z,2.90
2018-03-11T12:07:06.664Z,2.40
2018-03-11T12:09:34.287Z,2.20
2018-03-11T12:12:02.714Z,1.87
2018-03-11T12:14:30.333Z,2.50
2018-03-11T12:16:57.978Z,1.90
2018-03-11T12:19:25.646Z,1.85
2018-03-11T12:21:53.273Z,2.20
2018-03-11T12:24:20.889Z,2.53
2018-03-11T12:26:49.255Z,2.12
2018-03-11T12:29:16.922Z,2.08
2018-03-11T12:31:44.523Z,2.70
2018-03-11T12:34:12.901Z,2.40
2018-03-11T12:36:41.296Z,2.37
2018-03-11T12:39:08.888Z,2.42
2018-03-11T12:41:36.545Z,1.90
2018-03-11T12:44:04.204Z,2.33
2018-03-11T12:46:31.842Z,2.72
2018-03-11T12:48:59.508Z,2.75
2018-03-11T12:51:27.124Z,2.42
2018-03-11T12:53:54.754Z,2.55
2018-03-11T12:56:23.126Z,2.60
2018-03-11T12:58:51.547Z,2.70
2018-03-11T13:01:19.181Z,2.70
2018-03-11T13:03:46.827Z,3.10
2018-03-11T13:06:15.104Z,3.00
2018-03-11T13:08:42.717Z,3.22
2018-03-11T13:11:10.357Z,2.60
2018-03-11T13:13:38.832Z,2.20
2018-03-11T13:16:06.501Z,2.47
2018-03-11T13:18:35.220Z,2.35
2018-03-11T13:21:06.591Z,2.93
2018-03-11T13:23:34.397Z,2.40
2018-03-11T13:26:02.053Z,3.72
2018-03-11T13:28:41.679Z,2.40
2018-03-11T13:31:09.350Z,2.40
2018-03-11T13:33:48.923Z,2.45
2018-03-11T13:36:16.563Z,3.45
2018-03-11T13:38:55.998Z,2.60
2018-03-11T13:41:23.650Z,2.37
2018-03-11T13:43:51.298Z,2.10
2018-03-11T13:49:21.926Z,2.40
2018-03-11T13:52:01.481Z,2.60
2018-03-11T13:54:29.100Z,2.85
2018-03-11T13:57:08.636Z,2.17
2018-03-11T13:59:37.186Z,2.07
2018-03-11T14:02:04.973Z,2.55
2018-03-11T14:04:32.581Z,2.20
2018-03-11T14:07:01.015Z,2.43
2018-03-11T14:09:29.873Z,3.12
2018-03-11T14:11:57.518Z,2.47
2018-03-11T14:14:25.983Z,1.98
2018-03-11T14:16:53.644Z,2.17
2018-03-11T14:19:21.293Z,2.25
2018-03-11T14:21:48.954Z,1.83
2018-03-11T14:24:16.565Z,2.92
2018-03-11T14:26:44.195Z,2.65
2018-03-11T14:29:11.832Z,2.17
2018-03-11T14:31:39.454Z,2.35
2018-03-11T14:34:07.737Z,2.00
2018-03-11T14:36:36.173Z,2.92
2018-03-11T14:39:03.839Z,1.73
2018-03-11T14:41:31.804Z,2.10
2018-03-11T14:43:59.459Z,1.90
2018-03-11T14:46:27.859Z,2.33
2018-03-11T14:48:55.579Z,3.22
2018-03-11T14:51:24.053Z,2.37
2018-03-11T14:53:52.889Z,2.12
2018-03-11T14:56:20.542Z,2.40
2018-03-11T14:58:48.209Z,2.83
2018-03-11T15:01:16.084Z,2.35
2018-03-11T15:03:43.767Z,2.42
2018-03-11T15:06:11.732Z,2.10
2018-03-11T15:08:39.395Z,2.15
2018-03-11T15:11:07.989Z,2.37
2018-03-11T15:13:35.667Z,3.03
2018-03-11T15:16:04.098Z,2.42
2018-03-11T15:18:31.750Z,2.50
2018-03-11T15:20:59.438Z,2.03
2018-03-11T15:23:27.823Z,2.75
2018-03-11T15:25:56.236Z,2.00
2018-03-11T15:28:23.848Z,2.10
2018-03-11T15:30:51.513Z,2.65
2018-03-11T15:33:19.150Z,2.00
2018-03-11T15:35:46.806Z,2.70
2018-03-11T15:38:16.275Z,2.10
2018-03-11T15:40:44.760Z,3.45
2018-03-11T15:43:13.201Z,2.28
2018-03-11T15:45:40.864Z,2.28
2018-03-11T15:48:08.537Z,2.47
2018-03-11T15:50:36.189Z,2.10
2018-03-11T15:53:03.798Z,2.33
2018-03-11T15:55:31.457Z,2.17
2018-03-11T15:57:59.141Z,1.93
2018-03-11T16:00:27.140Z,2.60
2018-03-11T16:02:54.774Z,2.00
2018-03-11T16:05:22.407Z,2.15
2018-03-11T16:07:50.053Z,3.33
2018-03-11T16:10:17.712Z,2.10
2018-03-11T16:12:45.327Z,2.13
2018-03-11T16:15:12.962Z,2.45
2018-03-11T16:17:40.592Z,2.75
2018-03-11T16:20:08.227Z,2.17
2018-03-11T16:22:35.887Z,1.98
2018-03-11T16:25:04.173Z,3.30
2018-03-11T16:27:32.312Z,2.50
2018-03-11T16:29:59.995Z,2.37
2018-03-11T16:32:27.789Z,2.40
2018-03-11T16:34:56.238Z,2.87
2018-03-11T16:37:23.850Z,2.50
2018-03-11T16:39:51.490Z,2.77
2018-03-11T16:42:19.984Z,2.42
2018-03-11T16:44:47.639Z,2.95
2018-03-11T16:47:15.302Z,3.03
2018-03-11T16:49:42.909Z,2.28
2018-03-11T16:52:10.576Z,2.20
2018-03-11T16:54:38.201Z,2.60
2018-03-11T16:57:05.870Z,2.78
2018-03-11T16:59:33.905Z,2.92
2018-03-11T17:02:01.587Z,2.70
2018-03-11T17:04:29.323Z,2.83
2018-03-11T17:06:56.998Z,2.70
2018-03-11T17:09:25.400Z,2.83
2018-03-11T17:11:53.116Z,2.87
2018-03-11T17:14:21.515Z,3.17
2018-03-11T17:16:49.141Z,3.25
2018-03-11T17:19:16.832Z,2.97
2018-03-11T17:21:44.604Z,3.10
2018-03-11T17:24:12.261Z,3.45
2018-03-11T17:26:39.908Z,3.40
2018-03-11T17:29:07.637Z,4.50
2018-03-11T17:31:36.513Z,3.55
2018-03-11T17:34:04.131Z,3.60
2018-03-11T17:36:31.758Z,3.08
2018-03-11T17:38:59.379Z,3.45
2018-03-11T17:41:27.009Z,3.50
2018-03-11T17:43:55.430Z,3.85
2018-03-11T17:46:23.094Z,4.07
2018-03-11T17:48:50.764Z,4.00
2018-03-11T17:51:18.779Z,3.75
2018-03-11T17:53:46.389Z,4.55
2018-03-11T17:56:14.015Z,5.47
2018-03-11T17:58:41.664Z,4.55
2018-03-11T18:01:09.273Z,4.87
2018-03-11T18:03:37.713Z,3.75
2018-03-11T18:06:05.331Z,3.95
2018-03-11T18:08:33.004Z,4.50
2018-03-11T18:11:00.627Z,4.93
2018-03-11T18:13:28.284Z,4.30
2018-03-11T18:15:55.902Z,5.05
2018-03-11T18:18:23.889Z,4.00
2018-03-11T18:20:51.571Z,4.60
2018-03-11T18:23:19.237Z,5.25
2018-03-11T18:25:46.907Z,3.60
2018-03-11T18:28:14.505Z,3.53
2018-03-11T18:30:42.162Z,5.13
2018-03-11T18:33:09.790Z,3.42
2018-03-11T18:35:37.473Z,3.87
2018-03-11T18:38:05.144Z,3.57
2018-03-11T18:40:32.762Z,3.62
2018-03-11T18:43:00.401Z,3.55
2018-03-11T18:45:28.022Z,3.70
2018-03-11T18:47:55.723Z,4.97
2018-03-11T18:50:23.370Z,3.47
2018-03-11T18:52:51.056Z,4.12
2018-03-11T18:55:18.712Z,3.60
2018-03-11T18:57:46.370Z,4.50
2018-03-11T19:00:14.020Z,3.53
2018-03-11T19:02:41.667Z,4.17
2018-03-11T19:05:09.341Z,5.10
2018-03-11T19:07:36.975Z,3.33
2018-03-11T19:10:04.624Z,3.90
2018-03-11T19:12:32.268Z,4.82
2018-03-11T19:14:59.935Z,4.47
2018-03-11T19:17:27.569Z,3.60
2018-03-11T19:19:55.233Z,4.35
2018-03-11T19:22:22.909Z,4.27
2018-03-11T19:24:50.522Z,4.70
2018-03-11T19:27:18.332Z,5.53
2018-03-11T19:29:45.970Z,4.00
2018-03-11T19:32:13.590Z,4.10
2018-03-11T19:34:41.353Z,5.00
2018-03-11T19:37:09.025Z,4.30
2018-03-11T19:39:36.663Z,4.35
2018-03-11T19:42:05.065Z,4.73
2018-03-11T19:44:32.658Z,4.53
2018-03-11T19:47:00.308Z,4.80
2018-03-11T19:49:27.950Z,4.70
2018-03-11T19:51:56.339Z,5.15
2018-03-11T19:54:23.986Z,4.05
2018-03-11T19:56:52.458Z,4.55
2018-03-11T19:59:20.914Z,4.53
2018-03-11T20:01:48.543Z,4.65
2018-03-11T20:04:16.956Z,4.03
2018-03-11T20:06:44.688Z,4.32
2018-03-11T20:09:13.088Z,5.32
2018-03-11T20:11:40.728Z,5.40
2018-03-11T20:14:09.163Z,4.60
2018-03-11T20:16:36.831Z,5.43
2018-03-11T20:19:04.562Z,4.93
2018-03-11T20:21:32.191Z,4.35
2018-03-11T20:23:59.838Z,5.50
2018-03-11T20:26:27.480Z,5.00
2018-03-11T20:28:55.871Z,6.30
2018-03-11T20:31:24.259Z,4.90
2018-03-11T20:33:51.950Z,5.60
2018-03-11T20:36:19.570Z,5.40
2018-03-11T20:38:47.224Z,5.32
2018-03-11T20:41:15.678Z,5.20
2018-03-11T20:43:44.133Z,5.80
2018-03-11T20:46:11.753Z,5.87
2018-03-11T20:48:39.425Z,6.10
2018-03-11T20:51:07.123Z,5.57
2018-03-11T20:53:34.753Z,6.17
2018-03-11T20:56:02.359Z,6.15
2018-03-11T20:58:30.766Z,6.93
2018-03-11T21:00:58.421Z,7.22
2018-03-11T21:03:26.021Z,5.62
2018-03-11T21:05:53.950Z,6.40
2018-03-11T21:08:22.304Z,6.78
2018-03-11T21:10:49.906Z,6.68
2018-03-11T21:13:17.561Z,5.85
2018-03-11T21:15:45.934Z,6.07
2018-03-11T21:18:13.688Z,5.80
2018-03-11T21:20:42.078Z,6.05
2018-03-11T21:23:10.662Z,6.75
2018-03-11T21:25:38.256Z,6.32
2018-03-11T21:28:05.902Z,6.50
2018-03-11T21:30:34.465Z,6.07
2018-03-11T21:33:02.854Z,6.97
2018-03-11T21:35:30.488Z,6.20
2018-03-11T21:37:58.113Z,6.22
2018-03-11T21:40:26.514Z,5.23
2018-03-11T21:42:54.146Z,5.85
2018-03-11T21:45:21.777Z,5.70
2018-03-11T21:47:49.483Z,5.43
2018-03-11T21:50:17.102Z,6.10
2018-03-11T21:52:44.694Z,5.78
2018-03-11T21:55:12.342Z,5.40
2018-03-11T21:57:40.236Z,5.75
2018-03-11T22:00:07.878Z,4.72
2018-03-11T22:02:35.477Z,5.30
2018-03-11T22:05:03.118Z,6.12
2018-03-11T22:07:30.781Z,5.10
2018-03-11T22:09:58.389Z,5.97
2018-03-11T22:12:26.834Z,6.18
2018-03-11T22:14:55.312Z,5.25
2018-03-11T22:17:22.986Z,5.30
2018-03-11T22:19:50.597Z,5.93
2018-03-11T22:22:18.230Z,5.93
2018-03-11T22:24:45.898Z,5.20
2018-03-11T22:27:13.521Z,5.67
2018-03-11T22:29:41.119Z,6.32
2018-03-11T22:32:08.753Z,5.72
2018-03-11T22:34:36.531Z,5.00
2018-03-11T22:37:04.191Z,5.35
2018-03-11T22:39:31.868Z,6.78
2018-03-11T22:42:00.256Z,6.00
2018-03-11T22:44:27.907Z,5.70
2018-03-11T22:46:55.557Z,5.85
2018-03-11T22:49:23.956Z,6.35
2018-03-11T22:51:52.441Z,6.07
2018-03-11T22:54:20.112Z,5.97
2018-03-11T22:56:47.725Z,7.53
2018-03-11T22:59:15.361Z,6.62
2018-03-11T23:01:43.037Z,7.37
2018-03-11T23:04:10.658Z,5.68
2018-03-11T23:06:39.077Z,6.37
2018-03-11T23:09:06.714Z,6.03
2018-03-11T23:11:34.433Z,6.68
2018-03-11T23:14:02.041Z,5.80
2018-03-11T23:16:30.820Z,7.12
2018-03-11T23:19:21.985Z,6.60
2018-03-11T23:21:49.594Z,6.10
2018-03-11T23:24:18.586Z,6.83
2018-03-11T23:26:46.965Z,7.30
2018-03-11T23:29:15.386Z,6.68
2018-03-11T23:31:43.039Z,6.33
2018-03-11T23:34:11.387Z,7.07
2018-03-11T23:36:39.072Z,6.25
2018-03-11T23:39:07.519Z,5.80
2018-03-11T23:41:35.122Z,5.85
2018-03-11T23:44:02.815Z,7.12
2018-03-11T23:46:30.410Z,7.97
2018-03-11T23:48:58.095Z,7.57
2018-03-11T23:51:25.724Z,6.70
2018-03-11T23:53:53.359Z,6.70
2018-03-11T23:56:20.981Z,6.60
2018-03-11T23:58:48.602Z,6.87
